Time;durP1;ratioP1;P1;durP2;ratioP2;P2;SDS_P1;SDS_P2;PMS_P1;PMS_P2;Temp;Humidity;BMP_temperature;BMP_pressure;BME280_temperature;BME280_humidity;BME280_pressure;Samples;Min_cycle;Max_cycle;Signal;HPM_P1;HPM_P2
2024/03/28 00:00:47;;;;;;;2.67;1.40;;;;;;;-0.41;100.00;96420.91;5019635;28;20033;-74
2024/03/28 00:03:13;;;;;;;3.17;1.75;;;;;;;-0.35;100.00;96412.13;5019577;28;20378;-73
2024/03/28 00:05:39;;;;;;;4.88;1.90;;;;;;;-0.27;100.00;96403.97;5003192;28;20122;-74
2024/03/28 00:08:05;;;;;;;2.63;1.50;;;;;;;-0.30;100.00;96407.03;5019467;28;20032;-74
2024/03/28 00:10:30;;;;;;;2.22;1.30;;;;;;;-0.30;100.00;96399.13;5019508;28;20037;-73
2024/03/28 00:12:56;;;;;;;5.03;1.70;;;;;;;-0.27;100.00;96404.75;5019259;28;20041;-74
2024/03/28 00:15:24;;;;;;;7.63;2.40;;;;;;;-0.35;100.00;96405.03;5035737;28;20029;-74
2024/03/28 00:17:49;;;;;;;5.68;2.10;;;;;;;-0.34;100.00;96395.31;5019189;28;20041;-73
2024/03/28 00:20:15;;;;;;;3.00;1.90;;;;;;;-0.38;100.00;96394.09;5019293;28;20052;-73
2024/03/28 00:22:41;;;;;;;4.80;1.60;;;;;;;-0.51;100.00;96397.63;5019307;28;20033;-73
2024/03/28 00:25:07;;;;;;;5.03;1.73;;;;;;;-0.54;100.00;96401.50;5019382;28;20064;-73
2024/03/28 00:27:32;;;;;;;2.15;1.65;;;;;;;-0.55;100.00;96399.88;5019319;28;20047;-73
2024/03/28 00:30:01;;;;;;;3.17;2.10;;;;;;;-0.67;100.00;96407.66;5019317;28;20032;-73
2024/03/28 00:32:27;;;;;;;2.45;1.45;;;;;;;-0.72;100.00;96410.13;5019158;28;20136;-74
2024/03/28 00:34:52;;;;;;;4.22;2.08;;;;;;;-0.88;100.00;96410.59;5019306;28;20466;-74
2024/03/28 00:37:18;;;;;;;8.38;2.65;;;;;;;-0.94;100.00;96406.97;5019019;28;20043;-73
2024/03/28 00:39:48;;;;;;;5.78;2.20;;;;;;;-0.78;100.00;96410.16;5023062;28;20041;-74
2024/03/28 00:42:14;;;;;;;5.00;2.80;;;;;;;-0.72;100.00;96406.66;5023043;28;20475;-74
2024/03/28 00:44:40;;;;;;;5.00;1.75;;;;;;;-0.73;100.00;96410.34;5056245;28;20055;-74
2024/03/28 00:47:06;;;;;;;7.38;2.60;;;;;;;-0.79;100.00;96409.34;5022946;28;20390;-74
2024/03/28 00:49:31;;;;;;;5.05;2.35;;;;;;;-0.76;100.00;96410.75;5022966;28;20033;-74
2024/03/28 00:51:57;;;;;;;3.65;2.35;;;;;;;-0.76;100.00;96413.41;5022784;28;20033;-74
2024/03/28 00:54:22;;;;;;;6.75;3.03;;;;;;;-0.74;100.00;96408.72;5022830;28;20094;-74
2024/03/28 00:56:51;;;;;;;7.63;4.57;;;;;;;-0.75;100.00;96413.19;5022800;28;20158;-74
2024/03/28 00:59:16;;;;;;;7.55;2.85;;;;;;;-0.80;100.00;96420.09;5022728;28;20067;-74
2024/03/28 01:01:42;;;;;;;3.35;2.22;;;;;;;-0.87;100.00;96420.16;5023091;28;20440;-74
2024/03/28 01:04:08;;;;;;;5.32;3.00;;;;;;;-0.88;100.00;96414.03;5023541;28;20455;-74
2024/03/28 01:06:33;;;;;;;7.90;3.45;;;;;;;-0.76;100.00;96416.03;5022618;28;20387;-74
2024/03/28 01:08:59;;;;;;;4.22;2.35;;;;;;;-0.65;100.00;96411.94;5022600;28;20025;-74
2024/03/28 01:11:25;;;;;;;8.75;2.22;;;;;;;-0.62;100.00;96417.56;5022493;28;20040;-73
2024/03/28 01:13:50;;;;;;;9.07;3.92;;;;;;;-0.64;100.00;96419.59;5022208;28;20029;-74
2024/03/28 01:16:16;;;;;;;8.57;4.03;;;;;;;-0.59;100.00;96411.88;5022962;28;20040;-74
2024/03/28 01:18:41;;;;;;;5.53;3.42;;;;;;;-0.53;100.00;96418.13;5022346;28;20036;-74
2024/03/28 01:21:07;;;;;;;11.68;4.53;;;;;;;-0.49;100.00;96403.50;5022394;28;20379;-74
2024/03/28 01:23:33;;;;;;;11.27;5.65;;;;;;;-0.42;100.00;96404.28;5022474;28;20033;-74
2024/03/28 01:26:02;;;;;;;6.13;2.83;;;;;;;-0.49;100.00;96406.94;5021953;28;20029;-74
2024/03/28 01:28:29;;;;;;;8.32;2.72;;;;;;;-0.61;100.00;96406.00;5038744;28;20037;-74
2024/03/28 01:31:04;;;;;;;3.97;3.08;;;;;;;-0.66;100.00;96411.13;5021870;28;20048;-74
2024/03/28 01:33:29;;;;;;;4.45;2.90;;;;;;;-0.73;100.00;96411.16;5022785;28;20082;-74
2024/03/28 01:35:55;;;;;;;7.90;2.22;;;;;;;-0.64;100.00;96401.16;5022103;28;20033;-73
2024/03/28 01:38:21;;;;;;;8.02;3.88;;;;;;;-0.47;100.00;96399.63;5022024;28;20040;-74
2024/03/28 01:40:47;;;;;;;12.77;5.47;;;;;;;-0.39;100.00;96401.22;5021974;28;20033;-74
2024/03/28 01:43:13;;;;;;;14.52;6.30;;;;;;;-0.36;100.00;96394.69;5038353;28;20028;-74
2024/03/28 01:45:39;;;;;;;8.82;5.18;;;;;;;-0.39;100.00;96392.50;5055065;28;20501;-74
2024/03/28 01:48:06;;;;;;;17.85;7.43;;;;;;;-0.41;100.00;96397.16;5021871;28;20040;-74
2024/03/28 01:50:32;;;;;;;12.15;4.95;;;;;;;-0.46;100.00;96393.31;5037121;28;20471;-74
2024/03/28 01:52:57;;;;;;;9.77;4.15;;;;;;;-0.57;100.00;96401.94;5021562;28;20040;-74
2024/03/28 01:55:24;;;;;;;10.90;3.70;;;;;;;-0.67;100.00;96404.22;5021722;28;20040;-73
2024/03/28 01:57:50;;;;;;;10.13;3.47;;;;;;;-0.92;100.00;96404.94;5005471;28;20064;-74
2024/03/28 02:00:17;;;;;;;6.30;3.20;;;;;;;-1.12;100.00;96402.38;5021635;28;20122;-74
2024/03/28 02:02:43;;;;;;;6.50;2.70;;;;;;;-1.28;100.00;96399.41;5038045;28;20028;-74
2024/03/28 02:05:09;;;;;;;7.95;2.83;;;;;;;-1.43;100.00;96403.13;5021551;28;20037;-74
2024/03/28 02:07:35;;;;;;;8.27;3.80;;;;;;;-1.34;100.00;96401.84;5021473;28;20048;-74
2024/03/28 02:10:02;;;;;;;13.32;5.35;;;;;;;-1.04;100.00;96392.63;5021409;28;20059;-74
2024/03/28 02:12:29;;;;;;;10.90;5.68;;;;;;;-0.80;100.00;96399.00;5005047;28;20468;-74
2024/03/28 02:14:55;;;;;;;24.15;8.63;;;;;;;-0.69;100.00;96401.81;5005804;28;20037;-74
2024/03/28 02:17:20;;;;;;;20.25;7.60;;;;;;;-0.59;100.00;96403.97;5021390;28;20059;-74
2024/03/28 02:19:46;;;;;;;20.15;8.00;;;;;;;-0.57;100.00;96403.75;5021232;28;20471;-74
2024/03/28 02:22:12;;;;;;;16.67;7.25;;;;;;;-0.56;100.00;96395.63;5021049;28;20102;-74
2024/03/28 02:24:38;;;;;;;19.77;6.80;;;;;;;-0.50;100.00;96400.06;5021214;28;20047;-74
2024/03/28 02:27:04;;;;;;;18.58;7.20;;;;;;;-0.47;100.00;96399.63;5021023;28;20036;-74
2024/03/28 02:29:30;;;;;;;28.83;10.20;;;;;;;-0.37;100.00;96393.06;5037397;28;20050;-74
2024/03/28 02:31:55;;;;;;;15.82;6.18;;;;;;;-0.27;100.00;96390.75;5021062;28;20040;-74
2024/03/28 02:34:21;;;;;;;21.90;9.82;;;;;;;-0.20;100.00;96386.25;5020922;28;20029;-74
2024/03/28 02:36:47;;;;;;;19.77;7.28;;;;;;;-0.19;100.00;96385.22;5037027;28;20085;-74
2024/03/28 02:39:13;;;;;;;19.27;7.40;;;;;;;-0.21;100.00;96379.38;5020868;28;20091;-74
2024/03/28 02:41:38;;;;;;;18.98;7.05;;;;;;;-0.22;100.00;96383.00;5020839;28;20037;-74
2024/03/28 02:44:04;;;;;;;16.70;5.60;;;;;;;-0.29;100.00;96382.25;5037247;28;20036;-73
2024/03/28 02:46:30;;;;;;;8.52;2.90;;;;;;;-0.47;100.00;96383.81;5020846;28;20041;-73
2024/03/28 02:48:58;;;;;;;17.67;5.85;;;;;;;-0.57;100.00;96380.81;5020632;28;20052;-74
2024/03/28 02:51:24;;;;;;;15.63;4.68;;;;;;;-0.67;100.00;96376.00;5020687;28;20033;-74
2024/03/28 02:53:50;;;;;;;16.38;5.93;;;;;;;-0.66;100.00;96374.19;5053411;28;20490;-74
2024/03/28 02:56:15;;;;;;;16.85;6.22;;;;;;;-0.58;100.00;96381.84;5020628;28;20040;-74
2024/03/28 02:58:41;;;;;;;17.20;5.53;;;;;;;-0.48;100.00;96376.91;5020594;28;20037;-74
2024/03/28 03:01:07;;;;;;;20.65;6.13;;;;;;;-0.45;100.00;96379.13;5020177;28;20486;-74
2024/03/28 03:03:32;;;;;;;8.25;4.20;;;;;;;-0.44;100.00;96382.56;5020439;28;20367;-73
2024/03/28 03:05:58;;;;;;;20.77;6.90;;;;;;;-0.35;100.00;96373.34;5020524;28;20379;-74
2024/03/28 03:08:23;;;;;;;102.93;93.78;;;;;;;-0.21;100.00;96376.72;5021213;28;20462;-74
2024/03/28 03:10:49;;;;;;;135.38;120.70;;;;;;;-0.19;100.00;96366.75;5020261;28;20368;-74
2024/03/28 03:13:15;;;;;;;36.22;21.98;;;;;;;-0.19;100.00;96379.94;5020143;28;20025;-74
2024/03/28 03:15:41;;;;;;;10.15;4.43;;;;;;;-0.16;100.00;96374.25;5020110;28;20045;-74
2024/03/28 03:18:07;;;;;;;21.38;5.35;;;;;;;-0.26;100.00;96373.91;5020217;28;20041;-73
2024/03/28 03:20:38;;;;;;;18.15;10.10;;;;;;;-0.39;100.00;96371.38;5037151;28;20025;-74
2024/03/28 03:23:04;;;;;;;28.15;25.65;;;;;;;-0.48;100.00;96371.63;5020840;28;20138;-74
2024/03/28 03:25:41;;;;;;;5.72;2.90;;;;;;;-0.64;100.00;96368.69;5020543;28;20037;-74
2024/03/28 03:36:22;;;;;;;278.75;258.00;;;;;;;-0.26;100.00;96368.66;5071985;28;20071;-74
2024/03/28 03:38:47;;;;;;;544.85;511.95;;;;;;;-0.23;100.00;96361.09;5019857;28;20076;-74
2024/03/28 03:41:13;;;;;;;866.20;813.63;;;;;;;-0.13;100.00;96357.97;5020452;28;20036;-74
2024/03/28 03:43:39;;;;;;;23.83;10.18;;;;;;;-0.15;100.00;96360.03;5019756;28;20349;-74
2024/03/28 03:46:04;;;;;;;10.93;4.82;;;;;;;-0.08;100.00;96360.78;5052252;28;20036;-74
2024/03/28 03:48:30;;;;;;;693.65;650.75;;;;;;;-0.06;100.00;96360.53;5019797;28;20045;-74
2024/03/28 03:50:56;;;;;;;945.10;891.47;;;;;;;-0.19;100.00;96356.19;5019698;28;20044;-73
2024/03/28 03:53:22;;;;;;;829.67;783.25;;;;;;;-0.25;100.00;96357.84;5019596;28;20028;-74
2024/03/28 03:55:56;;;;;;;798.95;750.60;;;;;;;-0.23;100.00;96357.66;5035889;28;20360;-74
2024/03/28 03:58:22;;;;;;;886.15;834.20;;;;;;;-0.27;100.00;96344.06;5053044;28;20072;-74
2024/03/28 04:00:47;;;;;;;881.10;834.63;;;;;;;-0.24;100.00;96354.22;5019707;28;20132;-74
2024/03/28 04:03:13;;;;;;;818.80;773.67;;;;;;;-0.11;100.00;96347.19;5019644;28;20486;-74
2024/03/28 04:05:39;;;;;;;939.57;887.77;;;;;;;-0.11;100.00;96350.63;5019509;28;20530;-74
2024/03/28 04:08:06;;;;;;;917.33;870.17;;;;;;;-0.18;100.00;96349.09;5052120;28;20033;-74
2024/03/28 04:10:31;;;;;;;884.57;837.27;;;;;;;-0.34;100.00;96351.25;5003324;28;20064;-74
2024/03/28 04:12:57;;;;;;;756.27;717.60;;;;;;;-0.29;100.00;96350.56;5037458;28;20072;-74
2024/03/28 04:15:23;;;;;;;520.58;486.95;;;;;;;-0.40;100.00;96349.44;5023556;28;20428;-74
2024/03/28 04:17:48;;;;;;;313.45;292.00;;;;;;;-0.44;100.00;96345.63;5039445;28;20049;-73
2024/03/28 04:20:14;;;;;;;764.28;724.35;;;;;;;-0.48;100.00;96350.53;5023216;28;20044;-74
2024/03/28 04:22:40;;;;;;;637.95;603.22;;;;;;;-0.49;100.00;96348.91;5039413;28;20174;-74
2024/03/28 04:25:05;;;;;;;344.15;317.50;;;;;;;-0.54;100.00;96348.72;5024192;28;20037;-74
2024/03/28 04:27:31;;;;;;;337.92;310.10;;;;;;;-0.50;100.00;96349.13;5023303;28;20508;-74
2024/03/28 04:29:57;;;;;;;731.38;683.60;;;;;;;-0.53;100.00;96349.53;5023216;28;20028;-74
2024/03/28 04:32:24;;;;;;;914.50;871.30;;;;;;;-0.59;100.00;96351.19;5039222;28;20067;-74
2024/03/28 04:34:50;;;;;;;902.20;852.67;;;;;;;-0.65;100.00;96349.41;5039422;28;20029;-74
2024/03/28 04:37:15;;;;;;;437.95;414.95;;;;;;;-0.66;100.00;96353.09;5023161;28;20361;-74
2024/03/28 04:39:41;;;;;;;158.68;149.30;;;;;;;-0.53;100.00;96349.53;5023128;28;20044;-74
2024/03/28 04:42:07;;;;;;;54.85;50.30;;;;;;;-0.57;100.00;96353.63;5023050;28;20044;-74
2024/03/28 04:44:32;;;;;;;7.53;3.83;;;;;;;-0.63;100.00;96351.84;5039430;28;20041;-74
2024/03/28 04:46:58;;;;;;;10.55;2.83;;;;;;;-0.67;100.00;96354.91;5023037;28;20079;-74
2024/03/28 04:49:24;;;;;;;3.63;2.03;;;;;;;-0.70;100.00;96349.25;5022770;28;20048;-74
2024/03/28 04:51:50;;;;;;;12.82;3.92;;;;;;;-0.77;100.00;96351.91;5022921;28;20065;-74
2024/03/28 04:54:16;;;;;;;9.10;3.25;;;;;;;-0.73;100.00;96344.41;5022554;28;20035;-74
2024/03/28 04:56:42;;;;;;;6.40;2.90;;;;;;;-0.71;100.00;96345.00;5006653;28;20037;-74
2024/03/28 04:59:08;;;;;;;13.50;3.83;;;;;;;-0.67;100.00;96344.34;5022750;28;20040;-74
2024/03/28 05:01:35;;;;;;;14.90;10.43;;;;;;;-0.65;100.00;96343.34;5023150;28;20037;-74
2024/03/28 05:04:01;;;;;;;301.83;285.88;;;;;;;-0.60;100.00;96340.88;5039108;28;20039;-74
2024/03/28 05:06:26;;;;;;;20.73;7.15;;;;;;;-0.56;100.00;96342.06;5022692;28;20036;-74
2024/03/28 05:08:53;;;;;;;7.22;3.03;;;;;;;-0.58;100.00;96344.09;5038578;28;20032;-74
2024/03/28 05:11:19;;;;;;;137.80;130.15;;;;;;;-0.64;100.00;96344.94;5039022;28;20028;-74
2024/03/28 05:13:45;;;;;;;351.50;320.13;;;;;;;-0.64;100.00;96345.75;5038803;28;20025;-74
2024/03/28 05:16:14;;;;;;;300.52;277.67;;;;;;;-0.59;100.00;96345.91;5022818;28;20458;-74
2024/03/28 05:18:42;;;;;;;480.73;443.65;;;;;;;-0.51;100.00;96343.03;5022648;28;20029;-74
2024/03/28 05:21:08;;;;;;;196.23;179.00;;;;;;;-0.43;100.00;96346.44;5038573;28;20104;-74
2024/03/28 05:23:34;;;;;;;12.98;5.40;;;;;;;-0.46;100.00;96343.19;5022232;28;20128;-74
2024/03/28 05:26:00;;;;;;;237.30;219.40;;;;;;;-0.44;100.00;96345.63;5022249;28;20029;-74
2024/03/28 05:28:25;;;;;;;632.45;586.95;;;;;;;-0.39;100.00;96345.00;5022206;28;20037;-74
2024/03/28 05:30:52;;;;;;;682.05;633.22;;;;;;;-0.40;100.00;96346.81;5022287;28;20029;-74
2024/03/28 05:33:18;;;;;;;894.30;841.58;;;;;;;-0.46;100.00;96348.47;5038627;28;20033;-74
2024/03/28 05:35:44;;;;;;;896.00;852.70;;;;;;;-0.49;100.00;96343.63;5021706;28;20068;-74
2024/03/28 05:38:10;;;;;;;845.20;810.20;;;;;;;-0.48;100.00;96334.69;5022059;28;20048;-74
2024/03/28 05:40:36;;;;;;;;;;;;;;;-0.55;100.00;96331.28;5038107;28;19913;-74
2024/03/28 05:43:01;;;;;;;;;;;;;;;-0.55;100.00;96330.50;5055289;28;19917;-74
2024/03/28 05:45:27;;;;;;;9.40;3.57;;;;;;;-0.56;100.00;96332.31;5070500;28;20435;-74
2024/03/28 05:47:53;;;;;;;922.70;875.43;;;;;;;-0.58;100.00;96334.38;5021710;28;20475;-74
2024/03/28 05:50:18;;;;;;;;;;;;;;;-0.55;100.00;96328.66;5021672;28;20036;-74
2024/03/28 05:52:44;;;;;;;;;;;;;;;-0.52;100.00;96330.06;5054960;28;20319;-74
2024/03/28 05:55:09;;;;;;;;;;;;;;;-0.53;100.00;96337.19;5055288;28;19917;-74
2024/03/28 05:57:35;;;;;;;;;;;;;;;-0.57;100.00;96330.69;5072270;28;20397;-74
2024/03/28 06:00:00;;;;;;;;;;;;;;;-0.58;100.00;96339.66;5055149;28;19917;-74
2024/03/28 06:02:26;;;;;;;;;;;;;;;-0.53;100.00;96337.19;5055144;28;19917;-74
2024/03/28 06:04:51;;;;;;;;;;;;;;;-0.48;100.00;96334.69;5055031;28;19956;-74
2024/03/28 06:07:17;;;;;;;;;;;;;;;-0.43;100.00;96339.31;5055008;28;19917;-75
2024/03/28 06:09:42;;;;;;;;;;;;;;;-0.46;100.00;96337.09;5055008;28;19917;-74
2024/03/28 06:12:08;;;;;;;;;;;;;;;-0.40;100.00;96346.81;5054844;28;20275;-74
2024/03/28 06:14:36;;;;;;;;;;;;;;;-0.37;100.00;96345.56;5054753;28;19921;-74
2024/03/28 06:17:02;;;;;;;;;;;;;;;-0.41;100.00;96345.19;5054376;28;19916;-74
2024/03/28 06:19:27;;;;;;;;;;;;;;;-0.45;100.00;96347.47;5055021;28;19917;-74
2024/03/28 06:21:53;;;;;;;;;;;;;;;-0.43;100.00;96351.72;5054834;28;20356;-74
2024/03/28 06:24:18;;;;;;;;;;;;;;;-0.41;100.00;96344.38;5054638;28;20287;-74
2024/03/28 06:26:44;;;;;;;;;;;;;;;-0.40;100.00;96340.72;5054603;28;19921;-74
2024/03/28 06:29:10;;;;;;;;;;;;;;;-0.33;100.00;96346.75;5054598;28;20009;-74
2024/03/28 06:31:40;;;;;;;;;;;;;;;-0.29;100.00;96342.66;5054380;28;19924;-74
2024/03/28 06:34:06;;;;;;;;;;;;;;;-0.30;100.00;96351.59;5069951;28;19924;-73
2024/03/28 06:36:31;;;;;;;;;;;;;;;-0.32;100.00;96346.56;5053560;28;20046;-74
2024/03/28 06:38:57;;;;;;;;;;;;;;;-0.24;100.00;96351.56;5054200;28;20016;-74
2024/03/28 06:41:22;;;;;;;;;;;;;;;-0.20;100.00;96348.50;5054336;28;20279;-74
2024/03/28 06:43:49;;;;;;;;;;;;;;;-0.09;100.00;96353.88;5054269;28;19924;-72
2024/03/28 06:46:14;;;;;;;;;;;;;;;-0.01;100.00;96350.16;5054014;28;19967;-74
2024/03/28 06:48:40;;;;;;;;;;;;;;;0.02;100.00;96349.72;5054225;28;20283;-74
2024/03/28 06:51:06;;;;;;;;;;;;;;;0.08;100.00;96350.66;5054142;28;19921;-74
2024/03/28 06:53:31;;;;;;;;;;;;;;;0.36;100.00;96344.91;5053831;28;19943;-74
2024/03/28 06:55:57;;;;;;;;;;;;;;;0.57;100.00;96343.69;5054103;28;19927;-74
2024/03/28 06:58:22;;;;;;;;;;;;;;;0.85;100.00;96349.25;5054028;28;19979;-74
2024/03/28 07:00:48;;;;;;;;;;;;;;;0.95;100.00;96355.81;5054002;28;19917;-74
2024/03/28 07:03:13;;;;;;;;;;;;;;;1.07;100.00;96354.84;5053883;28;20290;-74
2024/03/28 07:05:39;;;;;;;;;;;;;;;1.27;100.00;96346.66;5053910;28;19969;-74
2024/03/28 07:08:04;;;;;;;;;;;;;;;1.09;100.00;96352.00;5053825;28;19966;-74
2024/03/28 07:10:30;;;;;;;;;;;;;;;1.02;100.00;96353.91;5053777;28;20015;-74
2024/03/28 07:12:55;;;;;;;;;;;;;;;1.03;100.00;96355.53;5053675;28;19994;-74
2024/03/28 07:15:21;;;;;;;;;;;;;;;1.18;100.00;96355.13;5053688;28;20322;-74
2024/03/28 07:17:46;;;;;;;;;;;;;;;1.49;100.00;96354.09;5053582;28;19920;-74
2024/03/28 07:20:12;;;;;;;;;;;;;;;1.56;100.00;96353.97;5070124;28;19917;-74
2024/03/28 07:22:38;;;;;;;;;;;;;;;1.54;100.00;96347.09;5053141;28;19921;-74
2024/03/28 07:25:03;;;;;;;;;;;;;;;1.55;100.00;96347.88;5070051;28;19956;-74
2024/03/28 07:27:31;;;;;;;;;;;;;;;1.56;100.00;96357.44;5069410;28;19974;-73
2024/03/28 07:29:57;;;;;;;;;;;;;;;1.64;100.00;96351.84;5052944;28;19931;-74
2024/03/28 07:32:22;;;;;;;;;;;;;;;2.03;100.00;96354.06;5070540;28;19983;-74
2024/03/28 07:34:48;;;;;;;;;;;;;;;2.48;100.00;96350.81;5053950;28;20252;-72
2024/03/28 07:37:14;;;;;;;;;;;;;;;2.82;100.00;96349.16;5053246;28;20349;-74
2024/03/28 07:39:39;;;;;;;;;;;;;;;2.86;100.00;96345.00;5069507;28;19923;-74
2024/03/28 07:42:05;;;;;;;;;;;;;;;2.93;100.00;96350.97;5053279;28;20287;-75
2024/03/28 07:44:30;;;;;;;;;;;;;;;3.56;100.00;96349.22;5053497;28;19916;-74
2024/03/28 07:46:56;;;;;;;;;;;;;;;4.50;100.00;96350.38;5053215;28;19971;-74
2024/03/28 07:49:21;;;;;;;;;;;;;;;5.07;100.00;96355.38;5086115;28;20058;-74
2024/03/28 07:51:47;;;;;;;;;;;;;;;5.19;100.00;96342.75;5086698;28;19938;-74
2024/03/28 07:54:12;;;;;;;;;;;;;;;5.52;100.00;96348.94;5052807;28;20381;-74
2024/03/28 07:56:38;;;;;;;;;;;;;;;6.07;100.00;96353.19;5052900;28;20304;-74
2024/03/28 07:59:03;;;;;;;;;;;;;;;6.35;100.00;96348.56;5053063;28;19923;-74
2024/03/28 08:01:29;;;;;;;;;;;;;;;6.38;100.00;96348.09;5053023;28;19940;-74
2024/03/28 08:03:54;;;;;;;;;;;;;;;6.15;100.00;96346.56;5069132;28;20338;-74
2024/03/28 08:06:20;;;;;;;;;;;;;;;6.26;100.00;96345.59;5052978;28;19917;-74
2024/03/28 08:08:46;;;;;;;;;;;;;;;6.28;100.00;96340.00;5085849;28;19916;-73
2024/03/28 08:11:11;;;;;;;;;;;;;;;6.26;100.00;96340.25;5069116;28;19916;-74
2024/03/28 08:13:36;;;;;;;;;;;;;;;6.54;100.00;96336.44;5052694;28;20347;-74
2024/03/28 08:16:02;;;;;;;;;;;;;;;6.35;100.00;96332.56;5053472;28;19923;-74
2024/03/28 08:18:31;;;;;;;;;;;;;;;5.27;100.00;96344.97;5052830;28;20383;-74
2024/03/28 08:20:57;;;;;;;;;;;;;;;4.60;100.00;96339.88;5052522;28;19916;-74
2024/03/28 08:23:23;;;;;;;;;;;;;;;4.19;100.00;96348.09;5068981;28;20394;-73
2024/03/28 08:25:48;;;;;;;;;;;;;;;4.03;100.00;96343.59;5053331;28;19916;-74
2024/03/28 08:28:15;;;;;;;;;;;;;;;4.12;100.00;96344.00;5052722;28;20007;-73
2024/03/28 08:30:42;;;;;;;;;;;;;;;4.40;100.00;96351.06;5069200;28;19917;-74
2024/03/28 08:33:08;;;;;;;;;;;;;;;4.74;100.00;96346.47;5068756;28;19921;-73
2024/03/28 08:35:43;;;;;;;;;;;;;;;5.04;100.00;96339.91;5052662;28;19923;-74
2024/03/28 08:38:09;;;;;;;;;;;;;;;5.20;100.00;96344.34;5052640;28;19923;-74
2024/03/28 08:40:38;;;;;;;;;;;;;;;4.83;100.00;96349.50;5069196;28;20004;-74
2024/03/28 08:43:04;;;;;;;;;;;;;;;4.75;100.00;96350.72;5069248;28;19917;-74
2024/03/28 08:45:31;;;;;;;;;;;;;;;4.79;100.00;96356.34;5052642;28;19916;-74
2024/03/28 08:47:57;;;;;;;;;;;;;;;5.17;100.00;96365.34;5052568;28;20385;-74
2024/03/28 08:50:23;;;;;;;;;;;;;;;5.51;100.00;96360.66;5069160;28;19923;-74
2024/03/28 08:52:49;;;;;;;;;;;;;;;5.78;100.00;96352.66;5052351;28;19925;-74
2024/03/28 08:55:17;;;;;;;;;;;;;;;5.90;100.00;96344.47;5052637;28;19924;-74
2024/03/28 08:57:44;;;;;;;4.45;1.90;;;;;;;5.82;100.00;96344.94;5067336;28;20394;-74
2024/03/28 09:00:11;;;;;;;2.65;1.35;;;;;;;5.65;100.00;96343.19;5038769;28;20033;-74
2024/03/28 09:02:44;;;;;;;4.70;1.58;;;;;;;5.61;100.00;96346.63;5022595;28;20070;-74
2024/03/28 09:05:10;;;;;;;2.80;1.48;;;;;;;5.82;100.00;96352.94;5040144;28;20033;-74
2024/03/28 09:07:36;;;;;;;4.88;1.50;;;;;;;5.83;100.00;96342.03;5055663;28;20029;-74
2024/03/28 09:10:06;;;;;;;3.97;1.48;;;;;;;5.81;100.00;96332.69;5055775;28;20025;-75
2024/03/28 09:12:37;;;;;;;2.80;1.60;;;;;;;5.86;100.00;96346.06;5055230;28;20116;-74
2024/03/28 09:15:04;;;;;;;4.63;1.50;;;;;;;5.81;100.00;96348.66;5055375;28;20025;-74
2024/03/28 09:17:30;;;;;;;3.30;1.55;;;;;;;5.90;100.00;96353.28;5022545;28;20433;-74
2024/03/28 09:19:57;;;;;;;3.63;1.40;;;;;;;6.10;100.00;96349.22;5038882;28;20033;-74
2024/03/28 09:22:23;;;;;;;1.40;1.10;;;;;;;6.15;100.00;96350.03;5023401;28;20063;-74
2024/03/28 09:24:49;;;;;;;3.78;1.75;;;;;;;6.41;100.00;96347.56;5056170;28;20106;-74
2024/03/28 09:27:15;;;;;;;2.42;1.00;;;;;;;6.61;100.00;96352.19;5005964;28;20493;-74
2024/03/28 09:29:41;;;;;;;5.90;1.88;;;;;;;6.71;100.00;96354.13;5038640;28;20175;-74
2024/03/28 09:32:07;;;;;;;1.83;1.40;;;;;;;6.87;100.00;96357.69;5055222;28;20037;-74
2024/03/28 09:34:33;;;;;;;2.97;1.35;;;;;;;7.18;100.00;96350.59;5022150;28;20086;-74
2024/03/28 09:36:59;;;;;;;4.68;1.42;;;;;;;7.62;100.00;96353.66;5054602;28;20029;-74
2024/03/28 09:39:25;;;;;;;4.25;1.40;;;;;;;8.27;100.00;96356.63;5038519;28;20570;-74
2024/03/28 09:41:51;;;;;;;3.08;1.30;;;;;;;8.79;100.00;96358.19;5038504;28;20048;-74
2024/03/28 09:44:20;;;;;;;1.42;1.10;;;;;;;9.04;100.00;96361.84;5038268;28;20111;-74
2024/03/28 09:46:48;;;;;;;3.00;1.40;;;;;;;9.52;100.00;96359.47;5021773;28;20071;-74
2024/03/28 09:49:16;;;;;;;5.10;1.50;;;;;;;10.19;100.00;96350.97;5038319;28;20033;-74
2024/03/28 09:51:43;;;;;;;3.72;1.17;;;;;;;10.95;100.00;96349.47;5054527;28;20025;-74
2024/03/28 09:54:09;;;;;;;1.92;1.10;;;;;;;11.58;100.00;96357.28;5037650;28;20041;-74
2024/03/28 09:56:35;;;;;;;3.10;1.17;;;;;;;12.12;100.00;96371.38;5054264;28;20029;-74
2024/03/28 09:59:01;;;;;;;1.58;1.48;;;;;;;12.47;100.00;96369.19;5037676;28;20079;-75
2024/03/28 10:01:28;;;;;;;3.20;1.60;;;;;;;12.83;100.00;96368.53;5021810;28;20133;-73
2024/03/28 10:04:03;;;;;;;3.38;1.30;;;;;;;13.62;100.00;96366.44;5038188;28;20068;-74
2024/03/28 10:06:29;;;;;;;2.47;1.25;;;;;;;14.06;100.00;96364.16;5054100;28;20029;-72
2024/03/28 10:08:55;;;;;;;2.60;1.35;;;;;;;14.24;100.00;96368.56;5037829;28;20073;-72
2024/03/28 10:11:21;;;;;;;1.83;1.30;;;;;;;15.01;100.00;96360.47;5036795;28;20032;-73
2024/03/28 10:13:47;;;;;;;2.97;1.40;;;;;;;15.43;100.00;96367.13;5021123;28;20037;-72
2024/03/28 10:16:15;;;;;;;1.98;1.33;;;;;;;15.81;100.00;96374.69;5021256;28;20052;-72
2024/03/28 10:18:42;;;;;;;1.60;1.20;;;;;;;15.83;94.69;96381.41;5038102;28;20033;-73
2024/03/28 10:21:11;;;;;;;2.42;1.42;;;;;;;15.73;88.04;96376.28;5021264;28;20037;-73
2024/03/28 10:23:41;;;;;;;2.85;1.50;;;;;;;15.43;74.71;96371.72;5038002;28;20045;-73
2024/03/28 10:26:09;;;;;;;1.73;1.33;;;;;;;15.25;82.64;96377.09;5021137;28;20033;-73
2024/03/28 10:28:36;;;;;;;3.00;1.38;;;;;;;14.84;58.72;96377.38;5054122;28;20511;-73
2024/03/28 10:31:02;;;;;;;3.92;1.35;;;;;;;15.10;84.63;96382.91;5021183;28;20072;-73
2024/03/28 10:33:32;;;;;;;2.05;0.90;;;;;;;15.67;82.97;96382.94;5037263;28;20029;-73
2024/03/28 10:36:02;;;;;;;1.90;1.00;;;;;;;16.38;80.87;96382.69;5021311;28;20123;-73
2024/03/28 10:38:29;;;;;;;3.40;1.00;;;;;;;16.68;76.87;96389.03;5053505;28;20029;-73
2024/03/28 10:40:57;;;;;;;2.75;1.10;;;;;;;16.29;70.04;96390.03;5020974;28;20095;-73
2024/03/28 10:43:24;;;;;;;3.22;1.00;;;;;;;15.45;64.42;96380.31;5053772;28;20112;-73
2024/03/28 10:45:52;;;;;;;2.03;1.10;;;;;;;14.81;62.04;96384.22;5037000;28;20111;-73
2024/03/28 10:48:18;;;;;;;3.30;0.90;;;;;;;14.94;78.89;96383.31;5037130;28;20068;-73
2024/03/28 10:51:11;;;;;;;2.38;1.30;;;;;;;15.32;79.45;96382.03;5053608;28;20025;-72
2024/03/28 10:54:01;;;;;;;2.13;1.00;;;;;;;15.34;79.07;96385.22;5020690;28;20387;-73
2024/03/28 10:56:30;;;;;;;1.70;1.05;;;;;;;15.38;81.48;96381.59;5054016;28;20055;-74
2024/03/28 10:58:58;;;;;;;2.70;1.00;;;;;;;15.21;77.51;96386.94;5053384;28;20033;-73
2024/03/28 11:01:24;;;;;;;1.55;0.77;;;;;;;14.68;80.46;96385.09;5036814;28;20036;-73
2024/03/28 11:03:50;;;;;;;1.38;1.10;;;;;;;14.52;72.98;96398.97;5036418;28;20395;-74
2024/03/28 11:06:17;;;;;;;2.15;0.88;;;;;;;13.35;71.44;96393.47;5036435;28;20490;-74
2024/03/28 11:08:43;;;;;;;1.52;0.70;;;;;;;13.00;77.04;96392.25;5019984;28;20029;-75
2024/03/28 11:11:09;;;;;;;3.97;1.30;;;;;;;13.16;81.06;96398.94;5004067;28;20041;-73
2024/03/28 11:13:35;;;;;;;1.98;0.85;;;;;;;12.43;81.76;96398.59;5020142;28;20420;-74
2024/03/28 11:16:04;;;;;;;0.95;0.63;;;;;;;12.35;72.27;96407.34;5020292;28;20029;-74
2024/03/28 11:18:32;;;;;;;1.70;0.80;;;;;;;12.39;68.76;96402.97;5020167;28;20079;-73
2024/03/28 11:20:59;;;;;;;2.42;0.75;;;;;;;12.02;72.20;96403.81;5036621;28;20036;-74
2024/03/28 11:23:25;;;;;;;2.63;0.70;;;;;;;11.29;76.97;96405.00;5020181;28;20432;-74
2024/03/28 11:26:02;;;;;;;0.88;0.60;;;;;;;11.16;80.33;96401.09;5019847;28;20052;-74
2024/03/28 11:28:29;;;;;;;1.83;0.80;;;;;;;11.85;79.43;96397.03;5036153;28;20033;-74
2024/03/28 11:30:56;;;;;;;2.42;0.90;;;;;;;12.49;76.23;96396.59;5036045;28;20388;-74
2024/03/28 11:33:38;;;;;;;1.30;0.70;;;;;;;11.80;72.31;96399.78;5020529;28;20127;-73
2024/03/28 11:36:05;;;;;;;0.98;0.82;;;;;;;11.28;74.11;96404.22;5020323;28;20495;-74
2024/03/28 11:38:36;;;;;;;1.88;1.08;;;;;;;11.66;77.83;96404.28;5052616;28;20033;-74
2024/03/28 11:41:03;;;;;;;1.80;0.80;;;;;;;12.40;72.71;96407.25;5020196;28;20476;-74
2024/03/28 11:43:29;;;;;;;2.83;1.60;;;;;;;12.73;71.39;96409.97;5021140;28;20036;-75
2024/03/28 11:46:02;;;;;;;0.98;0.98;;;;;;;12.77;71.32;96409.06;5036116;28;20033;-74